sensor_id;sensor_type;location;lat;lon;timestamp;pressure;altitude;pressure_sealevel;temperature;humidity
79131;BME280;72396;45.194;9.142;2023-12-07T00:01:04;100769.63;;;18.94;41.78
79131;BME280;72396;45.194;9.142;2023-12-07T00:03:29;100764.50;;;18.91;41.67
79131;BME280;72396;45.194;9.142;2023-12-07T00:05:55;100754.97;;;18.86;41.59
79131;BME280;72396;45.194;9.142;2023-12-07T00:08:20;100756.78;;;18.86;41.64
79131;BME280;72396;45.194;9.142;2023-12-07T00:10:45;100762.97;;;18.86;41.48
79131;BME280;72396;45.194;9.142;2023-12-07T00:13:11;100770.91;;;18.88;41.49
79131;BME280;72396;45.194;9.142;2023-12-07T00:15:36;100785.00;;;18.90;41.34
79131;BME280;72396;45.194;9.142;2023-12-07T00:18:02;100778.78;;;18.89;41.33
79131;BME280;72396;45.194;9.142;2023-12-07T00:20:28;100777.09;;;18.88;41.40
79131;BME280;72396;45.194;9.142;2023-12-07T00:22:53;100782.56;;;18.87;41.38
79131;BME280;72396;45.194;9.142;2023-12-07T00:25:19;100777.09;;;18.88;41.15
79131;BME280;72396;45.194;9.142;2023-12-07T00:27:44;100784.34;;;18.86;41.20
79131;BME280;72396;45.194;9.142;2023-12-07T00:30:10;100792.50;;;18.85;41.18
79131;BME280;72396;45.194;9.142;2023-12-07T00:32:36;100797.84;;;18.85;41.01
79131;BME280;72396;45.194;9.142;2023-12-07T00:35:01;100800.50;;;18.85;41.02
79131;BME280;72396;45.194;9.142;2023-12-07T00:37:27;100801.47;;;18.84;40.75
79131;BME280;72396;45.194;9.142;2023-12-07T00:39:52;100805.09;;;18.83;41.13
79131;BME280;72396;45.194;9.142;2023-12-07T00:42:17;100799.19;;;18.78;40.96
79131;BME280;72396;45.194;9.142;2023-12-07T00:44:43;100801.66;;;18.81;40.97
79131;BME280;72396;45.194;9.142;2023-12-07T00:47:09;100805.28;;;18.80;40.79
79131;BME280;72396;45.194;9.142;2023-12-07T00:49:37;100795.88;;;18.74;40.77
79131;BME280;72396;45.194;9.142;2023-12-07T00:52:03;100800.91;;;18.79;40.63
79131;BME280;72396;45.194;9.142;2023-12-07T00:54:28;100804.66;;;18.76;40.65
79131;BME280;72396;45.194;9.142;2023-12-07T00:56:54;100808.28;;;18.75;40.77
79131;BME280;72396;45.194;9.142;2023-12-07T00:59:19;100800.16;;;18.77;40.78
79131;BME280;72396;45.194;9.142;2023-12-07T01:01:44;100789.31;;;18.65;40.55
79131;BME280;72396;45.194;9.142;2023-12-07T01:04:10;100806.66;;;18.72;40.69
79131;BME280;72396;45.194;9.142;2023-12-07T01:06:36;100801.41;;;18.71;40.70
79131;BME280;72396;45.194;9.142;2023-12-07T01:09:01;100812.00;;;18.72;40.54
79131;BME280;72396;45.194;9.142;2023-12-07T01:11:28;100812.09;;;18.71;40.35
79131;BME280;72396;45.194;9.142;2023-12-07T01:13:54;100813.78;;;18.72;40.44
79131;BME280;72396;45.194;9.142;2023-12-07T01:16:19;100801.72;;;18.66;40.45
79131;BME280;72396;45.194;9.142;2023-12-07T01:18:44;100811.25;;;18.70;40.33
79131;BME280;72396;45.194;9.142;2023-12-07T01:21:10;100804.19;;;18.69;40.29
79131;BME280;72396;45.194;9.142;2023-12-07T01:23:35;100814.88;;;18.69;40.37
79131;BME280;72396;45.194;9.142;2023-12-07T01:26:01;100807.81;;;18.68;40.09
79131;BME280;72396;45.194;9.142;2023-12-07T01:28:27;100808.66;;;18.69;40.05
79131;BME280;72396;45.194;9.142;2023-12-07T01:30:53;100808.00;;;18.65;40.12
79131;BME280;72396;45.194;9.142;2023-12-07T01:33:18;100806.97;;;18.68;40.08
79131;BME280;72396;45.194;9.142;2023-12-07T01:35:43;100813.34;;;18.65;40.02
79131;BME280;72396;45.194;9.142;2023-12-07T01:38:09;100818.69;;;18.65;40.02
79131;BME280;72396;45.194;9.142;2023-12-07T01:40:34;100820.53;;;18.65;39.89
79131;BME280;72396;45.194;9.142;2023-12-07T01:43:00;100816.13;;;18.64;39.89
79131;BME280;72396;45.194;9.142;2023-12-07T01:45:25;100815.25;;;18.63;39.88
79131;BME280;72396;45.194;9.142;2023-12-07T01:47:51;100810.03;;;18.62;39.69
79131;BME280;72396;45.194;9.142;2023-12-07T01:50:19;100815.47;;;18.60;39.66
79131;BME280;72396;45.194;9.142;2023-12-07T01:52:50;100818.16;;;18.60;39.64
79131;BME280;72396;45.194;9.142;2023-12-07T01:55:16;100817.41;;;18.58;39.98
79131;BME280;72396;45.194;9.142;2023-12-07T01:57:44;100815.88;;;18.54;39.54
79131;BME280;72396;45.194;9.142;2023-12-07T02:00:11;100822.72;;;18.58;39.72
79131;BME280;72396;45.194;9.142;2023-12-07T02:02:37;100830.00;;;18.56;39.57
79131;BME280;72396;45.194;9.142;2023-12-07T02:05:03;100826.44;;;18.55;39.64
79131;BME280;72396;45.194;9.142;2023-12-07T02:07:30;100831.03;;;18.53;39.67
79131;BME280;72396;45.194;9.142;2023-12-07T02:09:59;100833.63;;;18.55;39.58
79131;BME280;72396;45.194;9.142;2023-12-07T02:12:24;100836.38;;;18.53;39.44
79131;BME280;72396;45.194;9.142;2023-12-07T02:14:51;100830.19;;;18.53;39.62
79131;BME280;72396;45.194;9.142;2023-12-07T02:20:14;100843.56;;;18.53;39.28
79131;BME280;72396;45.194;9.142;2023-12-07T02:22:49;100839.06;;;18.53;39.39
79131;BME280;72396;45.194;9.142;2023-12-07T02:25:18;100832.13;;;18.51;39.19
79131;BME280;72396;45.194;9.142;2023-12-07T02:27:44;100833.06;;;18.50;39.32
79131;BME280;72396;45.194;9.142;2023-12-07T02:30:13;100837.63;;;18.48;39.36
79131;BME280;72396;45.194;9.142;2023-12-07T02:32:40;100833.06;;;18.50;39.36
79131;BME280;72396;45.194;9.142;2023-12-07T02:35:07;100835.75;;;18.50;39.18
79131;BME280;72396;45.194;9.142;2023-12-07T02:37:37;100822.03;;;18.41;39.02
79131;BME280;72396;45.194;9.142;2023-12-07T02:40:06;100826.09;;;18.47;39.01
79131;BME280;72396;45.194;9.142;2023-12-07T02:42:35;100829.63;;;18.48;39.11
79131;BME280;72396;45.194;9.142;2023-12-07T02:45:02;100827.34;;;18.41;39.00
79131;BME280;72396;45.194;9.142;2023-12-07T02:47:28;100831.06;;;18.39;38.76
79131;BME280;72396;45.194;9.142;2023-12-07T02:49:53;100829.06;;;18.42;39.05
79131;BME280;72396;45.194;9.142;2023-12-07T02:52:19;100828.31;;;18.40;38.99
79131;BME280;72396;45.194;9.142;2023-12-07T02:54:44;100839.94;;;18.39;38.93
79131;BME280;72396;45.194;9.142;2023-12-07T02:57:09;100839.75;;;18.42;38.92
79131;BME280;72396;45.194;9.142;2023-12-07T02:59:35;100839.75;;;18.42;38.89
79131;BME280;72396;45.194;9.142;2023-12-07T03:02:00;100838.03;;;18.41;38.75
79131;BME280;72396;45.194;9.142;2023-12-07T03:04:25;100832.91;;;18.38;38.94
79131;BME280;72396;45.194;9.142;2023-12-07T03:06:51;100836.31;;;18.40;38.61
79131;BME280;72396;45.194;9.142;2023-12-07T03:09:16;100827.75;;;18.35;38.60
79131;BME280;72396;45.194;9.142;2023-12-07T03:11:42;100835.56;;;18.38;38.55
79131;BME280;72396;45.194;9.142;2023-12-07T03:14:07;100838.44;;;18.35;38.80
79131;BME280;72396;45.194;9.142;2023-12-07T03:16:32;100833.09;;;18.35;38.53
79131;BME280;72396;45.194;9.142;2023-12-07T03:19:00;100828.59;;;18.36;38.69
79131;BME280;72396;45.194;9.142;2023-12-07T03:21:26;100820.06;;;18.30;38.54
79131;BME280;72396;45.194;9.142;2023-12-07T03:23:51;100820.88;;;18.31;38.70
79131;BME280;72396;45.194;9.142;2023-12-07T03:26:16;100830.44;;;18.35;38.45
79131;BME280;72396;45.194;9.142;2023-12-07T03:28:42;100833.28;;;18.32;38.57
79131;BME280;72396;45.194;9.142;2023-12-07T03:31:07;100827.00;;;18.33;38.49
79131;BME280;72396;45.194;9.142;2023-12-07T03:33:33;100832.34;;;18.33;38.21
79131;BME280;72396;45.194;9.142;2023-12-07T03:35:58;100833.28;;;18.32;38.30
79131;BME280;72396;45.194;9.142;2023-12-07T03:38:23;100827.59;;;18.24;38.37
79131;BME280;72396;45.194;9.142;2023-12-07T03:40:49;100835.19;;;18.30;38.31
79131;BME280;72396;45.194;9.142;2023-12-07T03:43:15;100840.53;;;18.30;38.22
79131;BME280;72396;45.194;9.142;2023-12-07T03:45:41;100844.16;;;18.29;38.24
79131;BME280;72396;45.194;9.142;2023-12-07T03:48:06;100845.13;;;18.28;38.18
79131;BME280;72396;45.194;9.142;2023-12-07T03:50:32;100857.63;;;18.27;38.16
79131;BME280;72396;45.194;9.142;2023-12-07T03:52:57;100848.00;;;18.25;38.32
79131;BME280;72396;45.194;9.142;2023-12-07T03:55:22;100855.91;;;18.26;38.35
79131;BME280;72396;45.194;9.142;2023-12-07T03:57:47;100844.75;;;18.20;38.11
79131;BME280;72396;45.194;9.142;2023-12-07T04:00:13;100855.25;;;18.23;37.69
79131;BME280;72396;45.194;9.142;2023-12-07T04:02:39;100848.19;;;18.22;38.10
79131;BME280;72396;45.194;9.142;2023-12-07T04:05:04;100852.66;;;18.21;38.14
79131;BME280;72396;45.194;9.142;2023-12-07T04:07:30;100852.56;;;18.23;37.88
79131;BME280;72396;45.194;9.142;2023-12-07T04:09:55;100859.72;;;18.22;37.89
79131;BME280;72396;45.194;9.142;2023-12-07T04:12:22;100827.72;;;18.08;37.88
79131;BME280;72396;45.194;9.142;2023-12-07T04:14:48;100854.56;;;18.19;38.03
79131;BME280;72396;45.194;9.142;2023-12-07T04:17:13;100856.28;;;18.20;38.05
79131;BME280;72396;45.194;9.142;2023-12-07T04:19:39;100866.19;;;18.18;38.01
79131;BME280;72396;45.194;9.142;2023-12-07T04:22:04;100867.34;;;18.14;37.88
79131;BME280;72396;45.194;9.142;2023-12-07T04:24:29;100874.97;;;18.20;37.99
79131;BME280;72396;45.194;9.142;2023-12-07T04:26:55;100875.09;;;18.18;37.81
79131;BME280;72396;45.194;9.142;2023-12-07T04:29:20;100872.56;;;18.15;37.83
79131;BME280;72396;45.194;9.142;2023-12-07T04:31:45;100883.38;;;18.14;37.71
79131;BME280;72396;45.194;9.142;2023-12-07T04:34:11;100877.34;;;18.10;38.11
79131;BME280;72396;45.194;9.142;2023-12-07T04:36:36;100893.16;;;18.13;37.92
79131;BME280;72396;45.194;9.142;2023-12-07T04:39:01;100892.34;;;18.13;37.93
79131;BME280;72396;45.194;9.142;2023-12-07T04:41:26;100884.31;;;18.13;37.94
79131;BME280;72396;45.194;9.142;2023-12-07T04:43:52;100886.13;;;18.12;37.87
79131;BME280;72396;45.194;9.142;2023-12-07T04:46:17;100880.78;;;18.12;37.77
79131;BME280;72396;45.194;9.142;2023-12-07T04:48:42;100879.06;;;18.11;37.74
79131;BME280;72396;45.194;9.142;2023-12-07T04:51:08;100877.34;;;18.10;37.67
79131;BME280;72396;45.194;9.142;2023-12-07T04:53:33;100879.06;;;18.11;37.86
79131;BME280;72396;45.194;9.142;2023-12-07T04:55:59;100880.22;;;18.07;37.92
79131;BME280;72396;45.194;9.142;2023-12-07T04:58:24;100884.59;;;18.08;37.57
79131;BME280;72396;45.194;9.142;2023-12-07T05:00:49;100880.97;;;18.09;37.55
79131;BME280;72396;45.194;9.142;2023-12-07T05:03:15;100876.78;;;18.05;37.54
79131;BME280;72396;45.194;9.142;2023-12-07T05:05:40;100883.75;;;18.08;37.58
79131;BME280;72396;45.194;9.142;2023-12-07T05:08:05;100881.94;;;18.08;37.50
79131;BME280;72396;45.194;9.142;2023-12-07T05:10:31;100883.84;;;18.06;37.35
79131;BME280;72396;45.194;9.142;2023-12-07T05:12:56;100869.63;;;18.06;37.47
79131;BME280;72396;45.194;9.142;2023-12-07T05:15:22;100887.06;;;18.11;37.71
79131;BME280;72396;45.194;9.142;2023-12-07T05:17:47;100883.38;;;18.14;37.50
79131;BME280;72396;45.194;9.142;2023-12-07T05:20:13;100882.97;;;18.20;37.85
79131;BME280;72396;45.194;9.142;2023-12-07T05:22:38;100885.34;;;18.25;38.20
79131;BME280;72396;45.194;9.142;2023-12-07T05:25:04;100880.69;;;18.28;38.68
79131;BME280;72396;45.194;9.142;2023-12-07T05:27:30;100884.59;;;18.37;38.98
79131;BME280;72396;45.194;9.142;2023-12-07T05:29:55;100887.81;;;18.42;39.01
79131;BME280;72396;45.194;9.142;2023-12-07T05:32:21;100887.81;;;18.42;38.54
79131;BME280;72396;45.194;9.142;2023-12-07T05:34:46;100893.25;;;18.41;38.52
79131;BME280;72396;45.194;9.142;2023-12-07T05:37:11;100896.03;;;18.39;38.97
79131;BME280;72396;45.194;9.142;2023-12-07T05:39:37;100899.16;;;18.46;38.72
79131;BME280;72396;45.194;9.142;2023-12-07T05:42:02;100879.53;;;18.32;38.81
79131;BME280;72396;45.194;9.142;2023-12-07T05:44:29;100897.44;;;18.45;38.70
79131;BME280;72396;45.194;9.142;2023-12-07T05:46:55;100914.69;;;18.54;38.71
79131;BME280;72396;45.194;9.142;2023-12-07T05:49:20;100912.31;;;18.49;38.46
79131;BME280;72396;45.194;9.142;2023-12-07T05:51:47;100919.78;;;14.09;31.78
79131;BME280;72396;45.194;9.142;2023-12-07T05:54:14;100910.00;;;11.87;35.58
79131;BME280;72396;45.194;9.142;2023-12-07T05:56:39;100942.88;;;12.76;37.23
79131;BME280;72396;45.194;9.142;2023-12-07T05:59:05;100929.28;;;14.53;37.41
79131;BME280;72396;45.194;9.142;2023-12-07T06:01:31;100942.03;;;15.74;36.87
79131;BME280;72396;45.194;9.142;2023-12-07T06:03:57;100945.44;;;16.45;36.24
79131;BME280;72396;45.194;9.142;2023-12-07T06:06:23;100942.47;;;16.52;35.45
79131;BME280;72396;45.194;9.142;2023-12-07T06:08:48;100947.97;;;16.97;35.56
79131;BME280;72396;45.194;9.142;2023-12-07T06:11:13;100952.34;;;17.30;35.15
79131;BME280;72396;45.194;9.142;2023-12-07T06:13:39;100961.75;;;17.52;35.03
79131;BME280;72396;45.194;9.142;2023-12-07T06:16:04;100955.44;;;17.69;35.12
79131;BME280;72396;45.194;9.142;2023-12-07T06:18:32;100945.13;;;17.77;35.01
79131;BME280;72396;45.194;9.142;2023-12-07T06:20:57;100955.06;;;17.75;34.89
79131;BME280;72396;45.194;9.142;2023-12-07T06:23:22;100943.03;;;17.82;35.08
79131;BME280;72396;45.194;9.142;2023-12-07T06:25:48;100963.66;;;17.95;35.24
79131;BME280;72396;45.194;9.142;2023-12-07T06:28:14;100965.09;;;18.00;35.46
79131;BME280;72396;45.194;9.142;2023-12-07T06:30:39;100967.59;;;18.03;35.83
79131;BME280;72396;45.194;9.142;2023-12-07T06:33:05;100955.28;;;18.01;35.67
79131;BME280;72396;45.194;9.142;2023-12-07T06:35:30;100970.88;;;18.09;35.99
79131;BME280;72396;45.194;9.142;2023-12-07T06:37:56;100973.25;;;18.13;36.79
79131;BME280;72396;45.194;9.142;2023-12-07T06:40:21;100962.41;;;18.16;36.91
79131;BME280;72396;45.194;9.142;2023-12-07T06:42:47;100965.72;;;18.20;37.18
79131;BME280;72396;45.194;9.142;2023-12-07T06:45:13;100970.22;;;18.20;37.13
79131;BME280;72396;45.194;9.142;2023-12-07T06:47:42;100972.69;;;18.23;37.50
79131;BME280;72396;45.194;9.142;2023-12-07T06:50:08;100964.75;;;18.21;37.35
79131;BME280;72396;45.194;9.142;2023-12-07T06:52:35;100966.00;;;18.15;37.19
79131;BME280;72396;45.194;9.142;2023-12-07T06:55:01;100981.72;;;18.20;37.25
79131;BME280;72396;45.194;9.142;2023-12-07T06:57:27;100977.25;;;18.21;37.29
79131;BME280;72396;45.194;9.142;2023-12-07T06:59:53;100972.75;;;18.21;37.54
79131;BME280;72396;45.194;9.142;2023-12-07T07:02:18;100975.53;;;18.20;37.54
79131;BME280;72396;45.194;9.142;2023-12-07T07:04:43;100999.19;;;18.26;37.60
79131;BME280;72396;45.194;9.142;2023-12-07T07:07:09;100998.41;;;18.24;37.53
79131;BME280;72396;45.194;9.142;2023-12-07T07:09:34;100990.69;;;18.19;37.50
79131;BME280;72396;45.194;9.142;2023-12-07T07:12:00;101004.53;;;18.26;38.13
79131;BME280;72396;45.194;9.142;2023-12-07T07:14:25;101013.28;;;18.28;37.74
79131;BME280;72396;45.194;9.142;2023-12-07T07:16:51;101012.94;;;18.34;37.85
79131;BME280;72396;45.194;9.142;2023-12-07T07:19:17;101016.56;;;18.33;37.76
79131;BME280;72396;45.194;9.142;2023-12-07T07:21:43;101017.13;;;18.38;37.15
79131;BME280;72396;45.194;9.142;2023-12-07T07:24:08;101017.59;;;18.30;36.09
79131;BME280;72396;45.194;9.142;2023-12-07T07:26:34;101016.16;;;18.25;36.99
79131;BME280;72396;45.194;9.142;2023-12-07T07:28:59;101017.78;;;18.27;36.97
79131;BME280;72396;45.194;9.142;2023-12-07T07:31:25;101037.91;;;18.33;36.95
79131;BME280;72396;45.194;9.142;2023-12-07T07:33:50;101039.72;;;18.32;36.90
79131;BME280;72396;45.194;9.142;2023-12-07T07:36:15;101032.84;;;18.28;36.67
79131;BME280;72396;45.194;9.142;2023-12-07T07:38:42;101042.66;;;18.28;36.87
79131;BME280;72396;45.194;9.142;2023-12-07T07:41:07;101051.44;;;18.30;36.71
79131;BME280;72396;45.194;9.142;2023-12-07T07:43:33;101062.09;;;18.30;36.77
79131;BME280;72396;45.194;9.142;2023-12-07T07:46:01;101054.47;;;18.24;36.68
79131;BME280;72396;45.194;9.142;2023-12-07T07:48:26;101062.50;;;18.24;36.50
79131;BME280;72396;45.194;9.142;2023-12-07T07:50:52;101067.44;;;18.30;37.25
79131;BME280;72396;45.194;9.142;2023-12-07T07:53:17;101052.97;;;18.34;38.09
79131;BME280;72396;45.194;9.142;2023-12-07T07:55:43;101058.88;;;18.39;38.33
79131;BME280;72396;45.194;9.142;2023-12-07T07:58:08;101058.00;;;18.39;37.96
79131;BME280;72396;45.194;9.142;2023-12-07T08:00:33;101056.41;;;18.36;37.52
79131;BME280;72396;45.194;9.142;2023-12-07T08:02:59;101054.00;;;18.31;37.33
79131;BME280;72396;45.194;9.142;2023-12-07T08:05:25;101070.88;;;18.32;37.14
79131;BME280;72396;45.194;9.142;2023-12-07T08:07:50;101071.06;;;18.29;37.09
79131;BME280;72396;45.194;9.142;2023-12-07T08:10:16;101077.34;;;18.28;36.95
79131;BME280;72396;45.194;9.142;2023-12-07T08:12:42;101088.03;;;18.28;36.90
79131;BME280;72396;45.194;9.142;2023-12-07T08:15:09;101097.00;;;18.27;36.54
79131;BME280;72396;45.194;9.142;2023-12-07T08:17:45;101099.78;;;18.25;36.88
79131;BME280;72396;45.194;9.142;2023-12-07T08:20:10;101099.09;;;18.22;36.74
79131;BME280;72396;45.194;9.142;2023-12-07T08:22:37;101097.47;;;18.19;36.76
79131;BME280;72396;45.194;9.142;2023-12-07T08:25:02;101099.84;;;18.24;37.02
79131;BME280;72396;45.194;9.142;2023-12-07T08:27:31;101083.81;;;18.09;37.04
79131;BME280;72396;45.194;9.142;2023-12-07T08:29:56;101111.41;;;18.24;36.98
79131;BME280;72396;45.194;9.142;2023-12-07T08:32:21;101098.34;;;18.20;37.23
79131;BME280;72396;45.194;9.142;2023-12-07T08:34:47;101102.59;;;18.22;37.04
79131;BME280;72396;45.194;9.142;2023-12-07T08:37:12;101110.47;;;18.25;37.63
79131;BME280;72396;45.194;9.142;2023-12-07T08:39:37;101105.97;;;18.26;37.86
79131;BME280;72396;45.194;9.142;2023-12-07T08:42:03;101107.19;;;18.20;38.25
79131;BME280;72396;45.194;9.142;2023-12-07T08:44:28;101105.56;;;18.17;38.00
79131;BME280;72396;45.194;9.142;2023-12-07T08:46:54;101125.59;;;18.25;38.10
79131;BME280;72396;45.194;9.142;2023-12-07T08:49:19;101130.94;;;18.25;37.95
79131;BME280;72396;45.194;9.142;2023-12-07T08:51:44;101120.84;;;17.67;36.54
79131;BME280;72396;45.194;9.142;2023-12-07T08:54:10;101117.81;;;17.73;36.90
79131;BME280;72396;45.194;9.142;2023-12-07T08:56:35;101128.50;;;17.89;37.55
79131;BME280;72396;45.194;9.142;2023-12-07T08:59:01;101123.75;;;17.95;37.42
79131;BME280;72396;45.194;9.142;2023-12-07T09:01:27;101136.47;;;18.06;37.27
79131;BME280;72396;45.194;9.142;2023-12-07T09:03:52;101119.16;;;17.97;36.98
79131;BME280;72396;45.194;9.142;2023-12-07T09:06:18;101131.84;;;18.09;37.16
79131;BME280;72396;45.194;9.142;2023-12-07T09:08:43;101140.53;;;18.13;37.11
79131;BME280;72396;45.194;9.142;2023-12-07T09:11:08;101147.59;;;18.14;37.17
79131;BME280;72396;45.194;9.142;2023-12-07T09:13:35;101141.66;;;18.09;37.07
79131;BME280;72396;45.194;9.142;2023-12-07T09:16:00;101151.09;;;18.14;37.19
79131;BME280;72396;45.194;9.142;2023-12-07T09:18:25;101150.34;;;18.12;37.08
79131;BME280;72396;45.194;9.142;2023-12-07T09:20:51;101152.28;;;18.25;37.23
79131;BME280;72396;45.194;9.142;2023-12-07T09:23:16;101152.97;;;18.28;37.31
79131;BME280;72396;45.194;9.142;2023-12-07T09:25:42;101154.69;;;18.29;37.13
79131;BME280;72396;45.194;9.142;2023-12-07T09:28:08;101157.25;;;18.31;37.15
79131;BME280;72396;45.194;9.142;2023-12-07T09:30:33;101147.63;;;18.28;37.06
79131;BME280;72396;45.194;9.142;2023-12-07T09:33:00;101162.59;;;18.31;36.84
79131;BME280;72396;45.194;9.142;2023-12-07T09:35:28;101151.91;;;18.31;37.18
79131;BME280;72396;45.194;9.142;2023-12-07T09:37:53;101156.16;;;18.35;36.86
79131;BME280;72396;45.194;9.142;2023-12-07T09:40:20;101148.47;;;18.29;36.74
79131;BME280;72396;45.194;9.142;2023-12-07T09:42:46;101151.84;;;18.02;35.91
79131;BME280;72396;45.194;9.142;2023-12-07T09:45:12;101155.66;;;18.12;36.72
79131;BME280;72396;45.194;9.142;2023-12-07T09:47:40;101146.38;;;18.20;36.77
79131;BME280;72396;45.194;9.142;2023-12-07T09:50:07;101139.91;;;18.24;36.59
79131;BME280;72396;45.194;9.142;2023-12-07T09:52:37;101140.47;;;18.29;36.28
79131;BME280;72396;45.194;9.142;2023-12-07T09:55:03;101135.31;;;18.26;36.52
79131;BME280;72396;45.194;9.142;2023-12-07T09:57:29;101128.28;;;18.25;36.45
79131;BME280;72396;45.194;9.142;2023-12-07T09:59:55;101137.63;;;18.32;36.17
79131;BME280;72396;45.194;9.142;2023-12-07T10:02:21;101127.06;;;18.30;36.01
79131;BME280;72396;45.194;9.142;2023-12-07T10:04:46;101114.53;;;18.31;36.14
79131;BME280;72396;45.194;9.142;2023-12-07T10:07:13;101119.53;;;18.37;36.05
79131;BME280;72396;45.194;9.142;2023-12-07T10:09:41;101118.00;;;18.33;36.05
79131;BME280;72396;45.194;9.142;2023-12-07T10:12:07;101114.19;;;18.37;36.21
79131;BME280;72396;45.194;9.142;2023-12-07T10:14:33;101110.66;;;18.37;36.18
79131;BME280;72396;45.194;9.142;2023-12-07T10:16:59;101100.25;;;18.32;36.16
79131;BME280;72396;45.194;9.142;2023-12-07T10:19:25;101104.53;;;18.35;35.99
79131;BME280;72396;45.194;9.142;2023-12-07T10:21:53;101089.56;;;18.32;36.07
79131;BME280;72396;45.194;9.142;2023-12-07T10:24:20;101091.31;;;18.33;36.14
79131;BME280;72396;45.194;9.142;2023-12-07T10:26:47;101085.09;;;18.32;36.06
79131;BME280;72396;45.194;9.142;2023-12-07T10:29:13;101090.34;;;18.34;35.36
79131;BME280;72396;45.194;9.142;2023-12-07T10:31:38;101090.25;;;18.36;35.71
79131;BME280;72396;45.194;9.142;2023-12-07T10:34:07;101071.81;;;18.31;35.64
79131;BME280;72396;45.194;9.142;2023-12-07T10:36:32;101071.06;;;18.29;35.63
79131;BME280;72396;45.194;9.142;2023-12-07T10:39:00;101069.28;;;18.29;35.78
79131;BME280;72396;45.194;9.142;2023-12-07T10:41:26;101077.97;;;18.33;35.62
79131;BME280;72396;45.194;9.142;2023-12-07T10:44:02;101071.66;;;18.34;35.57
79131;BME280;72396;45.194;9.142;2023-12-07T10:46:29;101063.66;;;18.34;35.63
79131;BME280;72396;45.194;9.142;2023-12-07T10:49:00;101063.75;;;18.32;35.55
79131;BME280;72396;45.194;9.142;2023-12-07T10:53:52;101061.84;;;18.35;35.38
79131;BME280;72396;45.194;9.142;2023-12-07T10:56:28;101058.22;;;18.36;35.54
79131;BME280;72396;45.194;9.142;2023-12-07T10:58:55;101059.28;;;18.33;35.38
79131;BME280;72396;45.194;9.142;2023-12-07T11:01:21;101067.09;;;18.36;35.23
79131;BME280;72396;45.194;9.142;2023-12-07T11:03:49;101055.47;;;18.37;35.41
79131;BME280;72396;45.194;9.142;2023-12-07T11:06:16;101037.91;;;18.33;35.37
79131;BME280;72396;45.194;9.142;2023-12-07T11:08:46;101039.78;;;18.31;35.32
79131;BME280;72396;45.194;9.142;2023-12-07T11:14:04;101047.34;;;18.39;35.76
79131;BME280;72396;45.194;9.142;2023-12-07T11:16:37;101041.84;;;18.42;35.78
79131;BME280;72396;45.194;9.142;2023-12-07T11:19:03;101024.56;;;18.33;35.90
79131;BME280;72396;45.194;9.142;2023-12-07T11:21:30;101039.91;;;18.44;35.92
79131;BME280;72396;45.194;9.142;2023-12-07T11:23:56;101045.06;;;18.47;36.00
79131;BME280;72396;45.194;9.142;2023-12-07T11:26:24;101057.38;;;18.50;36.30
79131;BME280;72396;45.194;9.142;2023-12-07T11:28:50;101053.28;;;18.44;36.56
79131;BME280;72396;45.194;9.142;2023-12-07T11:31:16;101061.56;;;18.54;36.41
79131;BME280;72396;45.194;9.142;2023-12-07T11:33:42;101060.44;;;18.58;37.08
79131;BME280;72396;45.194;9.142;2023-12-07T11:36:09;101053.66;;;18.52;36.92
79131;BME280;72396;45.194;9.142;2023-12-07T11:38:39;101074.66;;;18.58;36.87
79131;BME280;72396;45.194;9.142;2023-12-07T11:41:23;101077.41;;;18.57;36.77
79131;BME280;72396;45.194;9.142;2023-12-07T11:43:50;101074.25;;;18.50;36.69
79131;BME280;72396;45.194;9.142;2023-12-07T11:46:18;101074.25;;;18.50;36.84
79131;BME280;72396;45.194;9.142;2023-12-07T11:48:47;101049.38;;;18.50;37.45
79131;BME280;72396;45.194;9.142;2023-12-07T11:51:13;101067.88;;;18.67;38.47
79131;BME280;72396;45.194;9.142;2023-12-07T11:53:38;101065.09;;;18.69;38.30
79131;BME280;72396;45.194;9.142;2023-12-07T11:56:05;101067.28;;;18.77;37.79
79131;BME280;72396;45.194;9.142;2023-12-07T11:58:33;101066.13;;;18.95;42.18
79131;BME280;72396;45.194;9.142;2023-12-07T12:00:59;101060.34;;;19.03;43.71
79131;BME280;72396;45.194;9.142;2023-12-07T12:03:26;101054.50;;;19.11;46.39
79131;BME280;72396;45.194;9.142;2023-12-07T12:05:51;101054.41;;;19.12;45.98
79131;BME280;72396;45.194;9.142;2023-12-07T12:08:18;101054.03;;;19.04;40.79
79131;BME280;72396;45.194;9.142;2023-12-07T12:10:44;101041.03;;;18.98;40.58
79131;BME280;72396;45.194;9.142;2023-12-07T12:13:10;101040.16;;;18.97;40.19
79131;BME280;72396;45.194;9.142;2023-12-07T12:15:37;101032.94;;;18.85;38.96
79131;BME280;72396;45.194;9.142;2023-12-07T12:18:02;101040.97;;;18.85;41.38
79131;BME280;72396;45.194;9.142;2023-12-07T12:20:28;101030.28;;;18.99;42.28
79131;BME280;72396;45.194;9.142;2023-12-07T12:22:54;101031.13;;;19.00;39.97
79131;BME280;72396;45.194;9.142;2023-12-07T12:25:21;101043.81;;;19.11;49.24
79131;BME280;72396;45.194;9.142;2023-12-07T12:27:49;101041.78;;;17.97;38.62
79131;BME280;72396;45.194;9.142;2023-12-07T12:30:16;101047.59;;;17.26;39.29
79131;BME280;72396;45.194;9.142;2023-12-07T12:32:43;101028.31;;;16.89;39.37
79131;BME280;72396;45.194;9.142;2023-12-07T12:35:08;101042.94;;;16.30;39.81
79131;BME280;72396;45.194;9.142;2023-12-07T12:37:34;101044.59;;;17.00;40.99
79131;BME280;72396;45.194;9.142;2023-12-07T12:40:06;101039.91;;;17.68;42.51
79131;BME280;72396;45.194;9.142;2023-12-07T12:42:32;101021.66;;;18.07;41.99
79131;BME280;72396;45.194;9.142;2023-12-07T12:44:57;101035.53;;;18.43;41.57
79131;BME280;72396;45.194;9.142;2023-12-07T12:47:23;101029.72;;;18.51;40.81
79131;BME280;72396;45.194;9.142;2023-12-07T12:49:48;101027.22;;;18.62;39.41
79131;BME280;72396;45.194;9.142;2023-12-07T12:52:17;101032.00;;;18.71;40.28